Terminal Aerodrome Forecast
Issued by NWS Blacksburg, VA

Current Version | Previous Version | Text Only | Print | Product List | Glossary On
Versions: 1 2 3 4 5 6 7 8 9 10 11 12 13 14 15 16 17 18 19 20
000
FTUS41 KRNK 191120
TAFROA
TAF
KROA 191120Z 1912/2012 30015G27KT P6SM SCT035
      TEMPO 1912/1916 -SHRA BKN040
     FM191600 29020G30KT P6SM BKN040
     FM200700 30013G25KT P6SM SCT040
     FM201000 29009KT P6SM SKC=

USA.gov is the U.S. government's official web portal to all federal, state and local government web resources and services.